Αρχική σελίδα
METAR-TAF:

METAR-TAF

Αεροδρόμια :

Ντακάρ, Σενεγάλη

γεωγραφικό πλάτος: 14-44N, γεωγραφικό μήκος: 017-30W, υψόμετρο: 27 μ

Παρών καιρός

Η αναφορά έγινε 3 ώρες και 4 λεπτά πριν, στις 00:00 UTC
Άνεμος 4 kt από ΝΔ
Θερμοκρασία 25°C
Υγρασία 89%
Πίεση 1013 hPa
Ορατότητα: 8000 μ

METAR: GOOY 240000Z 22004KT 8000 NSC 25/23 Q1013

Χρόνος: 03:04 (03:04 UTC)

Πρόγνωση Καιρού

Η αναφορά έγινε 3 ώρες και 34 λεπτά πριν, στις 23:30 UTC
Η πρόγνωση ισχύει από τις 24 στις 00 UTC έως τις 25 στις 06 UTC
Άνεμος 8 kt από Δ/ΝΔ
Ορατότητα 10 χλμ και άνω
Διάσπαρτα νέφη σε ύψος 1300 πόδια
Προσωρινά
από 24 στις 02 UTC έως τις 24 στις 08 UTC
Αρκετά νέφη σε ύψος 1000 πόδια

TAF: GOOY 232330Z 2400/2506 24008KT 9999 SCT013 TEMPO 2402/2408 BKN010

Μετεωρολογικές αναφορές και προγνώσεις για περισσότερα από 4000 αεροδρόμια (δελτία METAR και TAF).

Οι διαθέσιμοι σταθμοί απεικονίζονται στο χάρτη με κίτρινες και κόκκινες κουκκίδες.

Μετακινήστε το ποντίκι πάνω από τις κουκκίδες για να δείτε το όνομα του σταθμού.

Στη συνέχεια, κάντε κλικ για να δείτε τις μετεωρολογικές αναφορές και τις προγνώσεις καιρού.

Για να αλλάξετε το χάρτη: κάντε κλικ στα πράσινα κουμπιά με τον μαύρο σταυρό για να ζουμάρετε, στο πράσινο κουμπί με την παύλα για να αφαιρέσετε το ζουμ ή στα πράσινα βέλη για να αντιπαραβάλλετε χάρτες.


METAR-TAF: